Flinterbothnia — PBLG — position and weather

sailwx.info

Track history (hours):
 
Tides and Currents Weather Stations Pressure Air Temp Water Temp Dewpoint Dewpoint Depression Visibility Wind Speed Wind Dir Waves Ship Positions

Flinterbothnia

Last reported at 2015-Jul-02 12:33 UTC. Time now 2015-Jul-02 12:38 UTC.
Position N 53°32' W 003°21'.

Length 82 m; draft 3.8 m.

Type: Cargo ship. MMSI: 244741000.

Date/timePositionNaut miles runAvg speedWind from/ knotsBaromVisibWave heightAir tempDewpointWater temp
2015-Jul-02 12:33N 53°32' W 003°21'10 9.8
2015-Jul-02 11:33N 53°30' W 003°05'9 9.0
2015-Jul-02 10:33N 53°22' W 002°57'2 1.6
2015-Jul-02 09:32N 53°21' W 002°55'0 0.0
2015-Jul-02 08:29N 53°21' W 002°55'0 0.0
2015-Jul-02 07:29N 53°21' W 002°55'0 0.0
2015-Jul-02 06:32N 53°21' W 002°55'0 0.0
2015-Jul-02 05:31N 53°21' W 002°55'0 0.0
2015-Jul-02 04:31N 53°21' W 002°55'0 0.0
2015-Jul-02 03:31N 53°21' W 002°55'0 0.0
2015-Jul-02 02:31N 53°21' W 002°55'0 0.0
2015-Jul-02 01:31N 53°21' W 002°55'0 0.0
2015-Jul-02 00:31N 53°21' W 002°55'0 0.0
2015-Jul-01 23:31N 53°21' W 002°55'0 0.0
2015-Jul-01 22:25N 53°21' W 002°55'0 0.0
2015-Jul-01 21:31N 53°21' W 002°55'0 0.0
2015-Jul-01 20:31N 53°21' W 002°55'0 0.0
2015-Jul-01 19:31N 53°21' W 002°55'0 0.0
2015-Jul-01 18:31N 53°21' W 002°55'0 0.0
2015-Jul-01 17:31N 53°21' W 002°55'0 0.0
2015-Jul-01 16:31N 53°21' W 002°55'0 0.0
2015-Jul-01 15:31N 53°21' W 002°55'0 0.0
2015-Jul-01 14:31N 53°21' W 002°55'0 0.0
2015-Jul-01 13:31N 53°21' W 002°55'0 0.0
2015-Jul-01 12:31N 53°21' W 002°55'0 0.0
2015-Jul-01 11:31N 53°21' W 002°55'0 0.0
2015-Jul-01 10:31N 53°21' W 002°55'0 0.0
2015-Jul-01 09:28N 53°21' W 002°55'0 0.0
2015-Jul-01 08:31N 53°21' W 002°55'0 0.0
2015-Jul-01 07:28N 53°21' W 002°55'0 0.0
2015-Jul-01 06:28N 53°21' W 002°55'0 0.0
2015-Jul-01 05:31N 53°21' W 002°55'0 0.0
2015-Jul-01 04:31N 53°21' W 002°55'0 0.0
2015-Jul-01 03:31N 53°21' W 002°55'0 0.0
2015-Jul-01 02:31N 53°21' W 002°55'0 0.0
2015-Jul-01 01:31N 53°21' W 002°55'0 0.0
2015-Jul-01 00:31N 53°21' W 002°55'0 0.0
2015-Jun-30 23:31N 53°21' W 002°55'0 0.0
2015-Jun-30 22:31N 53°21' W 002°55'0 0.0
2015-Jun-30 21:31N 53°21' W 002°55'0 0.0
2015-Jun-30 20:31N 53°21' W 002°55'0 0.0
2015-Jun-30 19:31N 53°21' W 002°55'0 0.0
2015-Jun-30 18:31N 53°21' W 002°55'0 0.0
2015-Jun-30 17:28N 53°21' W 002°55'0 0.0
2015-Jun-30 16:31N 53°21' W 002°55'0 0.0
2015-Jun-30 15:33N 53°21' W 002°55'0 0.0
2015-Jun-30 14:27N 53°21' W 002°55'0 0.0
2015-Jun-30 13:30N 53°21' W 002°55'0 0.0
2015-Jun-30 12:33N 53°21' W 002°55'0 0.0
2015-Jun-30 11:27N 53°21' W 002°55'0 0.0
2015-Jun-30 10:33N 53°21' W 002°55'1 1.1
2015-Jun-30 09:33N 53°22' W 002°56'6 6.3
2015-Jun-30 08:33N 53°27' W 003°02'6 5.5
2015-Jun-30 07:33N 53°31' W 003°08'7 6.6
2015-Jun-30 06:33N 53°31' W 003°19'6 5.8
2015-Jun-30 05:33N 53°31' W 003°28'1110.6
2015-Jun-30 04:33N 53°31' W 003°46'96 7.9
2015-Jun-29 16:20N 52°25' W 005°44'7 9.4
2015-Jun-29 15:32N 52°19' W 005°50'8 8.2
2015-Jun-29 14:33N 52°12' W 005°56'7 7.1
2015-Jun-29 13:33N 52°06' W 006°03'7 7.1
2015-Jun-29 12:33N 52°02' W 006°12'7 7.3
2015-Jun-29 11:33N 51°59' W 006°23'8 7.7
2015-Jun-29 10:33N 51°57' W 006°35'8 8.3
2015-Jun-29 09:33N 51°54' W 006°48'8 8.5
2015-Jun-29 08:33N 51°51' W 007°01'9 8.7
2015-Jun-29 07:33N 51°48' W 007°14'8 8.5
2015-Jun-29 06:33N 51°45' W 007°27'9 8.6
2015-Jun-29 05:33N 51°42' W 007°40'9 8.7
2015-Jun-29 04:33N 51°39' W 007°53'9 8.8
2015-Jun-29 03:33N 51°36' W 008°06'9 8.8
2015-Jun-29 02:33N 51°34' W 008°20'9 9.1
2015-Jun-29 01:33N 51°30' W 008°33'9 9.1
2015-Jun-29 00:33N 51°27' W 008°47'9 9.0
2015-Jun-28 23:33N 51°24' W 009°01'9 8.9
2015-Jun-28 22:33N 51°21' W 009°14'9 8.8
2015-Jun-28 21:33N 51°18' W 009°27'8 8.2
2015-Jun-28 20:33N 51°18' W 009°40'9 8.7
2015-Jun-28 19:33N 51°22' W 009°53'9 9.3
2015-Jun-28 18:33N 51°26' W 010°06'10 9.6
2015-Jun-28 17:28N 51°32' W 010°20'  
2015-Jun-25 21:24N 51°29' W 010°14'8 9.0
2015-Jun-25 20:33N 51°26' W 010°03'9 9.0
2015-Jun-25 19:33N 51°23' W 009°49'9 9.4
2015-Jun-25 18:34N 51°21' W 009°34'1010.1
2015-Jun-25 17:34N 51°24' W 009°19'1110.8
2015-Jun-25 16:33N 51°27' W 009°02'1111.2
2015-Jun-25 15:32N 51°31' W 008°45'1111.2
2015-Jun-25 14:34N 51°35' W 008°28'1111.1
2015-Jun-25 13:34N 51°39' W 008°12'1111.0
2015-Jun-25 12:34N 51°43' W 007°55'1110.8
2015-Jun-25 11:34N 51°47' W 007°39'1111.0
2015-Jun-25 10:33N 51°51' W 007°22'1111.0
2015-Jun-25 09:33N 51°55' W 007°06'1111.2
2015-Jun-25 08:34N 51°60' W 006°49'1211.9
2015-Jun-25 07:33N 52°04' W 006°31'1312.6
2015-Jun-25 06:34N 52°12' W 006°15'1212.4
2015-Jun-25 05:34N 52°24' W 006°08'1111.3
2015-Jun-25 04:32N 52°35' W 006°05'7110.2
2015-Jun-24 21:32N 53°46' W 005°60'1211.3
2015-Jun-24 20:30N 53°58' W 006°01'66 1.3
2015-Jun-22 19:15N 55°03' W 005°48'5 7.7
2015-Jun-22 18:32N 55°08' W 005°53'6 6.5
2015-Jun-22 17:33N 55°13' W 005°60'6 6.0
2015-Jun-22 16:33N 55°18' W 006°06'7 7.4
2015-Jun-22 15:33N 55°23' W 006°16'8 8.0
2015-Jun-22 14:33N 55°29' W 006°24'10 9.7
2015-Jun-22 13:33N 55°37' W 006°34'1010.3
2015-Jun-22 12:33N 55°47' W 006°37'  
Track history (hours):
 
Tides and Currents Weather Stations Pressure Air Temp Water Temp Dewpoint Dewpoint Depression Visibility Wind Speed Wind Dir Waves Ship Positions

Flinterbothnia

Last reported at 2015-Jul-02 12:33 UTC. Time now 2015-Jul-02 12:38 UTC.
Position N 53°32' W 003°21'.

Length 82 m; draft 3.8 m.

Type: Cargo ship. MMSI: 244741000.

Date/timePositionNaut miles runAvg speedWind from/ knotsBaromVisibWave heightAir tempDewpointWater temp
2015-Jul-02 12:33N 53°32' W 003°21'10 9.8
2015-Jul-02 11:33N 53°30' W 003°05'9 9.0
2015-Jul-02 10:33N 53°22' W 002°57'2 1.6
2015-Jul-02 09:32N 53°21' W 002°55'0 0.0
2015-Jul-02 08:29N 53°21' W 002°55'0 0.0
2015-Jul-02 07:29N 53°21' W 002°55'0 0.0
2015-Jul-02 06:32N 53°21' W 002°55'0 0.0
2015-Jul-02 05:31N 53°21' W 002°55'0 0.0
2015-Jul-02 04:31N 53°21' W 002°55'0 0.0
2015-Jul-02 03:31N 53°21' W 002°55'0 0.0
2015-Jul-02 02:31N 53°21' W 002°55'0 0.0
2015-Jul-02 01:31N 53°21' W 002°55'0 0.0
2015-Jul-02 00:31N 53°21' W 002°55'0 0.0
2015-Jul-01 23:31N 53°21' W 002°55'0 0.0
2015-Jul-01 22:25N 53°21' W 002°55'0 0.0
2015-Jul-01 21:31N 53°21' W 002°55'0 0.0
2015-Jul-01 20:31N 53°21' W 002°55'0 0.0
2015-Jul-01 19:31N 53°21' W 002°55'0 0.0
2015-Jul-01 18:31N 53°21' W 002°55'0 0.0
2015-Jul-01 17:31N 53°21' W 002°55'0 0.0
2015-Jul-01 16:31N 53°21' W 002°55'0 0.0
2015-Jul-01 15:31N 53°21' W 002°55'0 0.0
2015-Jul-01 14:31N 53°21' W 002°55'0 0.0
2015-Jul-01 13:31N 53°21' W 002°55'0 0.0
2015-Jul-01 12:31N 53°21' W 002°55'0 0.0
2015-Jul-01 11:31N 53°21' W 002°55'0 0.0
2015-Jul-01 10:31N 53°21' W 002°55'0 0.0
2015-Jul-01 09:28N 53°21' W 002°55'0 0.0
2015-Jul-01 08:31N 53°21' W 002°55'0 0.0
2015-Jul-01 07:28N 53°21' W 002°55'0 0.0
2015-Jul-01 06:28N 53°21' W 002°55'0 0.0
2015-Jul-01 05:31N 53°21' W 002°55'0 0.0
2015-Jul-01 04:31N 53°21' W 002°55'0 0.0
2015-Jul-01 03:31N 53°21' W 002°55'0 0.0
2015-Jul-01 02:31N 53°21' W 002°55'0 0.0
2015-Jul-01 01:31N 53°21' W 002°55'0 0.0
2015-Jul-01 00:31N 53°21' W 002°55'0 0.0
2015-Jun-30 23:31N 53°21' W 002°55'0 0.0
2015-Jun-30 22:31N 53°21' W 002°55'0 0.0
2015-Jun-30 21:31N 53°21' W 002°55'0 0.0
2015-Jun-30 20:31N 53°21' W 002°55'0 0.0
2015-Jun-30 19:31N 53°21' W 002°55'0 0.0
2015-Jun-30 18:31N 53°21' W 002°55'0 0.0
2015-Jun-30 17:28N 53°21' W 002°55'0 0.0
2015-Jun-30 16:31N 53°21' W 002°55'0 0.0
2015-Jun-30 15:33N 53°21' W 002°55'0 0.0
2015-Jun-30 14:27N 53°21' W 002°55'0 0.0
2015-Jun-30 13:30N 53°21' W 002°55'0 0.0
2015-Jun-30 12:33N 53°21' W 002°55'0 0.0
2015-Jun-30 11:27N 53°21' W 002°55'0 0.0
2015-Jun-30 10:33N 53°21' W 002°55'1 1.1
2015-Jun-30 09:33N 53°22' W 002°56'6 6.3
2015-Jun-30 08:33N 53°27' W 003°02'6 5.5
2015-Jun-30 07:33N 53°31' W 003°08'7 6.6
2015-Jun-30 06:33N 53°31' W 003°19'6 5.8
2015-Jun-30 05:33N 53°31' W 003°28'1110.6
2015-Jun-30 04:33N 53°31' W 003°46'96 7.9
2015-Jun-29 16:20N 52°25' W 005°44'7 9.4
2015-Jun-29 15:32N 52°19' W 005°50'8 8.2
2015-Jun-29 14:33N 52°12' W 005°56'7 7.1
2015-Jun-29 13:33N 52°06' W 006°03'7 7.1
2015-Jun-29 12:33N 52°02' W 006°12'7 7.3
2015-Jun-29 11:33N 51°59' W 006°23'8 7.7
2015-Jun-29 10:33N 51°57' W 006°35'8 8.3
2015-Jun-29 09:33N 51°54' W 006°48'8 8.5
2015-Jun-29 08:33N 51°51' W 007°01'9 8.7
2015-Jun-29 07:33N 51°48' W 007°14'8 8.5
2015-Jun-29 06:33N 51°45' W 007°27'9 8.6
2015-Jun-29 05:33N 51°42' W 007°40'9 8.7
2015-Jun-29 04:33N 51°39' W 007°53'9 8.8
2015-Jun-29 03:33N 51°36' W 008°06'9 8.8
2015-Jun-29 02:33N 51°34' W 008°20'9 9.1
2015-Jun-29 01:33N 51°30' W 008°33'9 9.1
2015-Jun-29 00:33N 51°27' W 008°47'9 9.0
2015-Jun-28 23:33N 51°24' W 009°01'9 8.9
2015-Jun-28 22:33N 51°21' W 009°14'9 8.8
2015-Jun-28 21:33N 51°18' W 009°27'8 8.2
2015-Jun-28 20:33N 51°18' W 009°40'9 8.7
2015-Jun-28 19:33N 51°22' W 009°53'9 9.3
2015-Jun-28 18:33N 51°26' W 010°06'10 9.6
2015-Jun-28 17:28N 51°32' W 010°20'  
2015-Jun-25 21:24N 51°29' W 010°14'8 9.0
2015-Jun-25 20:33N 51°26' W 010°03'9 9.0
2015-Jun-25 19:33N 51°23' W 009°49'9 9.4
2015-Jun-25 18:34N 51°21' W 009°34'1010.1
2015-Jun-25 17:34N 51°24' W 009°19'1110.8
2015-Jun-25 16:33N 51°27' W 009°02'1111.2
2015-Jun-25 15:32N 51°31' W 008°45'1111.2
2015-Jun-25 14:34N 51°35' W 008°28'1111.1
2015-Jun-25 13:34N 51°39' W 008°12'1111.0
2015-Jun-25 12:34N 51°43' W 007°55'1110.8
2015-Jun-25 11:34N 51°47' W 007°39'1111.0
2015-Jun-25 10:33N 51°51' W 007°22'1111.0
2015-Jun-25 09:33N 51°55' W 007°06'1111.2
2015-Jun-25 08:34N 51°60' W 006°49'1211.9
2015-Jun-25 07:33N 52°04' W 006°31'1312.6
2015-Jun-25 06:34N 52°12' W 006°15'1212.4
2015-Jun-25 05:34N 52°24' W 006°08'1111.3
2015-Jun-25 04:32N 52°35' W 006°05'7110.2
2015-Jun-24 21:32N 53°46' W 005°60'1211.3
2015-Jun-24 20:30N 53°58' W 006°01'66 1.3
2015-Jun-22 19:15N 55°03' W 005°48'5 7.7
2015-Jun-22 18:32N 55°08' W 005°53'6 6.5
2015-Jun-22 17:33N 55°13' W 005°60'6 6.0
2015-Jun-22 16:33N 55°18' W 006°06'7 7.4
2015-Jun-22 15:33N 55°23' W 006°16'8 8.0
2015-Jun-22 14:33N 55°29' W 006°24'10 9.7
2015-Jun-22 13:33N 55°37' W 006°34'1010.3
2015-Jun-22 12:33N 55°47' W 006°37'  

Dump ship's entire track history